createdAt,value
2022-10-30T00:00:20.915Z,4.18
2022-10-30T00:02:48.059Z,3.70
2022-10-30T00:05:14.963Z,3.40
2022-10-30T00:07:41.762Z,3.42
2022-10-30T00:10:08.675Z,3.35
2022-10-30T00:12:35.619Z,3.70
2022-10-30T00:15:02.087Z,3.85
2022-10-30T00:17:28.598Z,3.60
2022-10-30T00:19:55.238Z,3.22
2022-10-30T00:22:21.700Z,3.35
2022-10-30T00:24:48.234Z,4.25
2022-10-30T00:27:14.880Z,3.53
2022-10-30T00:29:41.897Z,3.58
2022-10-30T00:32:08.542Z,3.25
2022-10-30T00:34:35.040Z,3.53
2022-10-30T00:37:01.561Z,3.35
2022-10-30T00:39:28.007Z,3.47
2022-10-30T00:41:54.541Z,3.38
2022-10-30T00:44:40.245Z,3.70
2022-10-30T00:47:11.502Z,3.20
2022-10-30T00:49:41.804Z,3.05
2022-10-30T00:52:09.207Z,3.35
2022-10-30T00:54:36.289Z,3.58
2022-10-30T00:57:05.466Z,3.15
2022-10-30T00:59:33.262Z,3.13
2022-10-30T01:02:01.060Z,3.05
2022-10-30T01:04:30.158Z,2.88
2022-10-30T01:06:57.566Z,2.92
2022-10-30T01:09:24.434Z,3.08
2022-10-30T01:11:51.043Z,3.17
2022-10-30T01:14:18.758Z,3.13
2022-10-30T01:17:03.627Z,3.03
2022-10-30T01:19:45.446Z,2.90
2022-10-30T01:22:34.946Z,3.17
2022-10-30T01:25:07.641Z,2.90
2022-10-30T01:27:37.132Z,3.25
2022-10-30T01:30:28.697Z,3.50
2022-10-30T01:33:13.722Z,3.15
2022-10-30T01:35:49.249Z,3.03
2022-10-30T01:38:19.544Z,3.10
2022-10-30T01:40:46.266Z,2.67
2022-10-30T01:43:12.754Z,2.83
2022-10-30T01:45:58.018Z,3.33
2022-10-30T01:48:27.599Z,3.00
2022-10-30T01:50:59.475Z,2.95
2022-10-30T01:53:25.993Z,3.00
2022-10-30T01:56:01.806Z,2.90
2022-10-30T01:58:31.743Z,3.13
2022-10-30T02:00:59.670Z,2.80
2022-10-30T02:03:27.123Z,2.80
2022-10-30T02:05:54.070Z,3.00
2022-10-30T02:08:22.925Z,3.00
2022-10-30T02:10:51.341Z,3.10
2022-10-30T02:13:18.078Z,2.78
2022-10-30T02:15:45.334Z,2.55
2022-10-30T02:18:12.030Z,2.95
2022-10-30T02:20:38.655Z,2.70
2022-10-30T02:23:06.658Z,2.80
2022-10-30T02:25:33.732Z,2.40
2022-10-30T02:28:00.363Z,3.08
2022-10-30T02:30:26.991Z,2.70
2022-10-30T02:32:53.643Z,3.55
2022-10-30T02:35:20.216Z,2.70
2022-10-30T02:37:47.818Z,2.50
2022-10-30T02:40:14.453Z,3.03
2022-10-30T02:42:40.995Z,2.88
2022-10-30T02:45:07.771Z,2.67
2022-10-30T02:47:34.370Z,2.90
2022-10-30T02:50:00.944Z,2.65
2022-10-30T02:52:27.469Z,2.90
2022-10-30T02:54:53.975Z,2.70
2022-10-30T02:57:20.488Z,2.40
2022-10-30T02:59:47.018Z,2.03
2022-10-30T03:02:13.661Z,2.42
2022-10-30T03:04:40.219Z,2.80
2022-10-30T03:07:06.663Z,2.22
2022-10-30T03:09:33.171Z,2.70
2022-10-30T03:11:59.705Z,2.70
2022-10-30T03:14:26.132Z,2.38
2022-10-30T03:16:52.845Z,2.88
2022-10-30T03:19:19.788Z,2.33
2022-10-30T03:21:47.030Z,2.70
2022-10-30T03:24:13.746Z,2.47
2022-10-30T03:26:40.250Z,2.40
2022-10-30T03:29:06.838Z,2.13
2022-10-30T03:31:33.657Z,2.58
2022-10-30T03:34:00.179Z,2.55
2022-10-30T03:36:26.958Z,2.70
2022-10-30T03:38:53.493Z,2.38
2022-10-30T03:41:20.075Z,2.50
2022-10-30T03:43:46.621Z,2.35
2022-10-30T03:46:13.295Z,2.22
2022-10-30T03:48:39.852Z,2.38
2022-10-30T03:51:06.705Z,2.35
2022-10-30T03:53:33.475Z,2.40
2022-10-30T03:56:00.812Z,2.13
2022-10-30T03:58:28.137Z,2.30
2022-10-30T04:00:54.956Z,2.60
2022-10-30T04:03:21.488Z,2.42
2022-10-30T04:05:51.069Z,2.40
2022-10-30T04:08:18.170Z,2.38
2022-10-30T04:10:45.838Z,2.38
2022-10-30T04:13:13.835Z,2.22
2022-10-30T04:15:40.700Z,2.33
2022-10-30T04:18:07.675Z,2.58
2022-10-30T04:20:34.165Z,2.25
2022-10-30T04:23:01.660Z,2.45
2022-10-30T04:25:29.270Z,2.40
2022-10-30T04:27:56.443Z,2.20
2022-10-30T04:30:25.236Z,2.22
2022-10-30T04:32:52.782Z,2.47
2022-10-30T04:35:20.635Z,2.35
2022-10-30T04:37:54.675Z,2.10
2022-10-30T04:40:24.881Z,2.33
2022-10-30T04:42:51.593Z,2.10
2022-10-30T04:45:18.511Z,2.45
2022-10-30T04:47:45.331Z,2.10
2022-10-30T04:50:12.433Z,2.10
2022-10-30T04:52:39.381Z,2.60
2022-10-30T04:55:06.441Z,2.15
2022-10-30T04:57:32.923Z,1.88
2022-10-30T04:59:59.431Z,2.17
2022-10-30T05:02:26.126Z,1.80
2022-10-30T05:04:52.863Z,1.83
2022-10-30T05:07:19.426Z,1.90
2022-10-30T05:09:45.861Z,1.80
2022-10-30T05:12:12.388Z,1.98
2022-10-30T05:14:38.981Z,1.85
2022-10-30T05:17:05.414Z,2.13
2022-10-30T05:19:31.925Z,2.33
2022-10-30T05:21:58.395Z,1.95
2022-10-30T05:24:24.946Z,2.00
2022-10-30T05:26:51.394Z,2.25
2022-10-30T05:29:17.910Z,1.90
2022-10-30T05:31:44.377Z,1.77
2022-10-30T05:34:10.851Z,1.60
2022-10-30T05:36:37.279Z,2.03
2022-10-30T05:39:03.800Z,1.92
2022-10-30T05:41:30.272Z,2.30
2022-10-30T05:43:56.928Z,1.98
2022-10-30T05:46:23.381Z,2.00
2022-10-30T05:48:50.043Z,1.77
2022-10-30T05:51:17.124Z,1.48
2022-10-30T05:53:43.982Z,1.60
2022-10-30T05:56:10.547Z,1.85
2022-10-30T05:58:37.017Z,1.85
2022-10-30T06:01:07.446Z,1.98
2022-10-30T06:03:33.994Z,1.70
2022-10-30T06:06:00.465Z,1.88
2022-10-30T06:08:26.904Z,1.73
2022-10-30T06:10:54.197Z,1.70
2022-10-30T06:13:20.709Z,1.70
2022-10-30T06:15:47.176Z,1.80
2022-10-30T06:18:14.651Z,1.42
2022-10-30T06:20:41.203Z,1.95
2022-10-30T06:23:08.609Z,1.60
2022-10-30T06:25:40.786Z,1.70
2022-10-30T06:28:09.054Z,1.80
2022-10-30T06:30:35.453Z,1.70
2022-10-30T06:33:02.696Z,1.90
2022-10-30T06:35:29.566Z,1.90
2022-10-30T06:37:56.554Z,2.00
2022-10-30T06:40:23.614Z,6.50
2022-10-30T06:42:50.957Z,3.03
2022-10-30T06:45:18.493Z,2.63
2022-10-30T06:47:45.264Z,3.70
2022-10-30T06:50:13.333Z,2.88
2022-10-30T06:52:40.025Z,1.90
2022-10-30T06:55:07.650Z,2.35
2022-10-30T06:57:35.403Z,2.30
2022-10-30T07:00:02.244Z,2.10
2022-10-30T07:02:28.811Z,1.90
2022-10-30T07:04:55.321Z,2.10
2022-10-30T07:07:21.912Z,2.17
2022-10-30T07:09:48.386Z,2.05
2022-10-30T07:12:14.894Z,1.88
2022-10-30T07:14:41.885Z,2.30
2022-10-30T07:17:08.500Z,1.85
2022-10-30T07:19:34.928Z,1.70
2022-10-30T07:22:02.173Z,1.88
2022-10-30T07:24:28.772Z,1.83
2022-10-30T07:26:55.568Z,1.98
2022-10-30T07:29:22.180Z,1.60
2022-10-30T07:32:01.849Z,3.00
2022-10-30T07:34:29.575Z,2.63
2022-10-30T07:36:56.085Z,4.25
2022-10-30T07:39:22.579Z,3.60
2022-10-30T07:41:50.665Z,4.18
2022-10-30T07:44:17.361Z,3.33
2022-10-30T07:46:43.938Z,3.00
2022-10-30T07:49:10.525Z,2.60
2022-10-30T07:51:37.059Z,2.42
2022-10-30T07:54:03.700Z,2.45
2022-10-30T07:56:30.239Z,2.15
2022-10-30T07:58:56.739Z,2.15
2022-10-30T08:01:23.468Z,2.22
2022-10-30T08:03:50.219Z,2.30
2022-10-30T08:06:19.997Z,1.98
2022-10-30T08:08:49.540Z,2.35
2022-10-30T08:11:16.100Z,1.95
2022-10-30T08:13:42.699Z,2.03
2022-10-30T08:16:09.322Z,1.83
2022-10-30T08:18:35.880Z,2.08
2022-10-30T08:21:02.423Z,1.90
2022-10-30T08:23:29.059Z,1.92
2022-10-30T08:25:57.478Z,1.73
2022-10-30T08:28:26.945Z,2.20
2022-10-30T08:30:57.899Z,2.42
2022-10-30T08:33:24.458Z,2.10
2022-10-30T08:35:51.960Z,2.08
2022-10-30T08:38:19.179Z,2.50
2022-10-30T08:40:46.200Z,2.00
2022-10-30T08:43:12.977Z,1.95
2022-10-30T08:45:39.759Z,2.03
2022-10-30T08:48:06.827Z,2.00
2022-10-30T08:50:34.138Z,2.00
2022-10-30T08:53:02.727Z,2.30
2022-10-30T08:55:30.359Z,2.10
2022-10-30T08:57:57.067Z,1.92
2022-10-30T09:00:23.660Z,1.83
2022-10-30T09:02:50.440Z,2.10
2022-10-30T09:05:17.199Z,2.00
2022-10-30T09:07:43.819Z,2.03
2022-10-30T09:10:10.581Z,2.35
2022-10-30T09:12:37.180Z,2.17
2022-10-30T09:15:04.218Z,1.85
2022-10-30T09:17:30.763Z,2.30
2022-10-30T09:19:57.200Z,1.90
2022-10-30T09:22:23.861Z,2.25
2022-10-30T09:24:50.367Z,1.85
2022-10-30T09:27:16.839Z,2.63
2022-10-30T09:29:43.405Z,2.20
2022-10-30T09:32:10.622Z,2.67
2022-10-30T09:34:38.320Z,2.60
2022-10-30T09:37:04.898Z,2.70
2022-10-30T09:39:31.498Z,3.00
2022-10-30T09:42:05.558Z,2.88
2022-10-30T09:44:40.847Z,2.70
2022-10-30T09:47:08.824Z,2.17
2022-10-30T09:49:55.580Z,2.78
2022-10-30T09:52:27.900Z,3.15
2022-10-30T09:55:14.658Z,3.00
2022-10-30T09:57:59.818Z,2.55
2022-10-30T10:00:35.938Z,3.10
2022-10-30T10:03:25.562Z,2.92
2022-10-30T10:05:53.734Z,2.65
2022-10-30T10:08:27.178Z,2.75
2022-10-30T10:10:57.663Z,3.10
2022-10-30T10:13:38.533Z,3.00
2022-10-30T10:16:05.303Z,3.03
2022-10-30T10:18:36.007Z,3.55
2022-10-30T10:21:06.566Z,3.15
2022-10-30T10:23:36.904Z,2.65
2022-10-30T10:26:10.599Z,2.80
2022-10-30T10:28:37.059Z,2.70
2022-10-30T10:31:06.307Z,3.00
2022-10-30T10:33:51.173Z,2.67
2022-10-30T10:36:20.171Z,2.53
2022-10-30T10:39:02.007Z,2.60
2022-10-30T10:41:53.605Z,2.78
2022-10-30T10:44:23.483Z,3.58
2022-10-30T10:47:09.502Z,2.90
2022-10-30T10:49:42.034Z,2.85
2022-10-30T10:52:43.885Z,2.85
2022-10-30T10:55:14.768Z,2.95
2022-10-30T10:57:41.863Z,2.50
2022-10-30T11:00:13.382Z,3.22
2022-10-30T11:02:52.438Z,3.10
2022-10-30T11:05:25.854Z,2.72
2022-10-30T11:07:53.111Z,2.90
2022-10-30T11:10:20.430Z,3.20
2022-10-30T11:12:47.174Z,3.08
2022-10-30T11:15:20.261Z,3.00
2022-10-30T11:17:58.738Z,2.95
2022-10-30T11:20:47.940Z,3.35
2022-10-30T11:23:40.426Z,3.05
2022-10-30T11:26:26.566Z,2.90
2022-10-30T11:28:54.978Z,3.15
2022-10-30T11:31:30.385Z,3.08
2022-10-30T11:33:57.266Z,3.40
2022-10-30T11:36:24.627Z,3.60
2022-10-30T11:38:51.825Z,3.30
2022-10-30T11:41:19.187Z,3.45
2022-10-30T11:43:46.555Z,3.15
2022-10-30T11:46:18.547Z,3.67
2022-10-30T11:48:45.766Z,3.33
2022-10-30T11:51:13.294Z,3.08
2022-10-30T11:53:42.031Z,3.22
2022-10-30T11:56:27.895Z,3.70
2022-10-30T11:58:55.714Z,3.25
2022-10-30T12:01:22.376Z,3.75
2022-10-30T12:03:49.366Z,3.60
2022-10-30T12:06:25.367Z,3.83
2022-10-30T12:09:01.087Z,4.70
2022-10-30T12:11:28.647Z,8.27
2022-10-30T12:13:55.566Z,7.40
2022-10-30T12:16:22.149Z,6.75
2022-10-30T12:18:54.566Z,6.95
2022-10-30T12:21:21.208Z,10.32
2022-10-30T12:23:53.762Z,10.82
2022-10-30T12:26:21.246Z,13.63
2022-10-30T12:28:51.787Z,9.30
2022-10-30T12:31:20.789Z,15.25
2022-10-30T12:33:50.509Z,66.07
2022-10-30T12:36:19.327Z,23.60
2022-10-30T12:38:49.632Z,16.77
2022-10-30T12:41:24.745Z,18.85
2022-10-30T12:44:14.566Z,31.65
2022-10-30T12:46:53.425Z,23.05
2022-10-30T12:49:24.666Z,18.95
2022-10-30T12:51:54.426Z,12.38
2022-10-30T12:54:41.286Z,13.07
2022-10-30T12:57:30.847Z,11.13
2022-10-30T13:00:01.432Z,9.40
2022-10-30T13:02:39.313Z,8.32
2022-10-30T13:05:12.566Z,8.90
2022-10-30T13:07:45.146Z,8.18
2022-10-30T13:10:22.267Z,7.60
2022-10-30T13:12:54.730Z,7.47
2022-10-30T13:15:24.083Z,7.13
2022-10-30T13:17:50.787Z,6.95
2022-10-30T13:20:18.046Z,7.70
2022-10-30T13:22:44.527Z,6.85
2022-10-30T13:25:14.592Z,7.13
2022-10-30T13:27:53.445Z,6.25
2022-10-30T13:30:21.066Z,6.30
2022-10-30T13:32:50.645Z,6.18
2022-10-30T13:35:26.086Z,6.28
2022-10-30T13:38:01.057Z,5.80
2022-10-30T13:40:35.987Z,5.65
2022-10-30T13:43:15.649Z,6.13
2022-10-30T13:45:53.026Z,6.03
2022-10-30T13:48:42.546Z,5.90
2022-10-30T13:51:44.425Z,6.15
2022-10-30T13:54:15.667Z,6.25
2022-10-30T13:56:43.126Z,5.88
2022-10-30T13:59:09.706Z,5.80
2022-10-30T14:01:59.137Z,5.85
2022-10-30T14:04:31.211Z,5.22
2022-10-30T14:07:06.885Z,5.50
2022-10-30T14:09:59.606Z,6.25
2022-10-30T14:12:46.973Z,5.80
2022-10-30T14:15:25.807Z,5.53
2022-10-30T14:18:11.189Z,7.75
2022-10-30T14:20:48.485Z,5.47
2022-10-30T14:23:17.148Z,5.47
2022-10-30T14:25:44.035Z,5.68
2022-10-30T14:28:20.508Z,5.65
2022-10-30T14:30:47.287Z,6.07
2022-10-30T14:33:32.406Z,5.75
2022-10-30T14:36:14.069Z,5.90
2022-10-30T14:38:40.837Z,5.63
2022-10-30T14:41:17.266Z,5.78
2022-10-30T14:43:59.265Z,5.30
2022-10-30T14:46:37.531Z,5.47
2022-10-30T14:49:09.833Z,5.30
2022-10-30T14:51:49.247Z,4.90
2022-10-30T14:54:24.845Z,5.15
2022-10-30T14:56:52.730Z,5.55
2022-10-30T14:59:19.565Z,5.43
2022-10-30T15:01:55.166Z,5.40
2022-10-30T15:04:40.586Z,5.68
2022-10-30T15:07:09.925Z,5.38
2022-10-30T15:09:41.125Z,5.13
2022-10-30T15:12:20.380Z,5.60
2022-10-30T15:14:54.351Z,5.88
2022-10-30T15:17:37.432Z,5.22
2022-10-30T15:20:06.608Z,5.55
2022-10-30T15:22:34.610Z,4.93
2022-10-30T15:25:02.450Z,5.18
2022-10-30T15:27:29.326Z,5.57
2022-10-30T15:29:56.825Z,5.13
2022-10-30T15:32:24.602Z,5.65
2022-10-30T15:34:56.048Z,5.22
2022-10-30T15:37:22.973Z,3.88
2022-10-30T15:39:49.546Z,5.18
2022-10-30T15:42:16.368Z,5.30
2022-10-30T15:44:44.426Z,5.53
2022-10-30T15:47:18.987Z,5.07
2022-10-30T15:49:49.974Z,5.20
2022-10-30T15:52:22.046Z,5.82
2022-10-30T15:54:52.806Z,5.03
2022-10-30T16:00:20.292Z,5.38
2022-10-30T16:02:59.307Z,5.13
2022-10-30T16:05:26.488Z,5.00
2022-10-30T16:07:55.327Z,5.15
2022-10-30T16:10:22.765Z,4.78
2022-10-30T16:12:49.705Z,5.00
2022-10-30T16:15:24.006Z,5.05
2022-10-30T16:18:05.886Z,5.57
2022-10-30T16:20:32.987Z,4.97
2022-10-30T16:23:00.189Z,5.07
2022-10-30T16:25:26.774Z,5.30
2022-10-30T16:27:53.346Z,4.45
2022-10-30T16:30:20.206Z,5.32
2022-10-30T16:32:52.398Z,4.45
2022-10-30T16:35:20.526Z,4.97
2022-10-30T16:37:47.226Z,5.28
2022-10-30T16:40:15.114Z,5.10
2022-10-30T16:42:41.709Z,5.03
2022-10-30T16:45:11.307Z,4.82
2022-10-30T16:47:39.047Z,4.70
2022-10-30T16:50:07.029Z,4.60
2022-10-30T16:52:35.595Z,4.95
2022-10-30T16:55:04.389Z,5.18
2022-10-30T16:57:35.978Z,4.50
2022-10-30T17:00:03.107Z,4.47
2022-10-30T17:02:31.445Z,4.53
2022-10-30T17:05:18.307Z,4.80
2022-10-30T17:08:14.166Z,4.75
2022-10-30T17:11:00.406Z,4.57
2022-10-30T17:13:33.311Z,4.47
2022-10-30T17:16:11.767Z,4.75
2022-10-30T17:18:38.331Z,4.88
2022-10-30T17:21:06.988Z,4.90
2022-10-30T17:23:33.886Z,5.47
2022-10-30T17:26:07.536Z,6.03
2022-10-30T17:28:35.010Z,5.30
2022-10-30T17:31:20.308Z,6.35
2022-10-30T17:33:47.446Z,5.60
2022-10-30T17:36:14.226Z,5.50
2022-10-30T17:38:40.647Z,5.93
2022-10-30T17:41:08.362Z,4.70
2022-10-30T17:43:46.832Z,5.10
2022-10-30T17:46:17.548Z,5.05
2022-10-30T17:48:47.507Z,4.53
2022-10-30T17:51:14.406Z,5.18
2022-10-30T17:53:41.387Z,4.65
2022-10-30T17:56:15.845Z,4.85
2022-10-30T17:58:42.447Z,4.57
2022-10-30T18:01:13.277Z,4.50
2022-10-30T18:03:39.954Z,4.32
2022-10-30T18:06:07.126Z,4.53
2022-10-30T18:08:33.928Z,4.18
2022-10-30T18:11:00.356Z,4.68
2022-10-30T18:13:26.845Z,4.25
2022-10-30T18:15:56.492Z,4.40
2022-10-30T18:18:22.955Z,4.80
2022-10-30T18:20:49.526Z,4.75
2022-10-30T18:23:38.784Z,4.90
2022-10-30T18:26:05.774Z,4.60
2022-10-30T18:28:32.286Z,4.57
2022-10-30T18:31:01.344Z,3.92
2022-10-30T18:33:28.007Z,4.10
2022-10-30T18:35:55.134Z,4.22
2022-10-30T18:38:21.686Z,4.28
2022-10-30T18:40:48.367Z,3.88
2022-10-30T18:43:14.868Z,3.95
2022-10-30T18:45:41.969Z,5.15
2022-10-30T18:48:08.999Z,6.55
2022-10-30T18:50:35.965Z,6.32
2022-10-30T18:53:02.586Z,5.15
2022-10-30T18:55:33.000Z,5.13
2022-10-30T18:58:00.199Z,4.90
2022-10-30T19:00:39.681Z,5.00
2022-10-30T19:03:12.030Z,4.35
2022-10-30T19:05:38.441Z,4.45
2022-10-30T19:08:05.286Z,4.35
2022-10-30T19:10:33.310Z,4.53
2022-10-30T19:13:17.130Z,4.43
2022-10-30T19:15:44.809Z,4.07
2022-10-30T19:18:11.976Z,3.92
2022-10-30T19:20:58.912Z,4.03
2022-10-30T19:23:26.196Z,4.13
2022-10-30T19:25:53.086Z,3.97
2022-10-30T19:28:20.408Z,4.20
2022-10-30T19:30:51.174Z,3.67
2022-10-30T19:33:18.448Z,4.10
2022-10-30T19:35:45.011Z,3.00
2022-10-30T19:38:13.406Z,3.42
2022-10-30T19:40:40.605Z,4.28
2022-10-30T19:43:07.146Z,4.13
2022-10-30T19:45:34.168Z,3.80
2022-10-30T19:48:01.817Z,3.70
2022-10-30T19:50:29.775Z,3.88
2022-10-30T19:52:57.944Z,3.17
2022-10-30T19:55:25.693Z,3.90
2022-10-30T19:57:52.818Z,3.90
2022-10-30T20:00:24.568Z,3.55
2022-10-30T20:02:52.466Z,3.80
2022-10-30T20:05:19.446Z,2.78
2022-10-30T20:07:56.717Z,3.70
2022-10-30T20:10:23.326Z,3.95
2022-10-30T20:15:18.786Z,3.88
2022-10-30T20:17:46.113Z,3.63
2022-10-30T20:20:14.328Z,3.08
2022-10-30T20:22:40.960Z,3.95
2022-10-30T20:25:07.625Z,3.35
2022-10-30T20:27:34.064Z,3.25
2022-10-30T20:30:00.573Z,3.25
2022-10-30T20:32:27.145Z,3.20
2022-10-30T20:34:53.785Z,3.53
2022-10-30T20:37:21.314Z,3.45
2022-10-30T20:39:50.889Z,3.70
2022-10-30T20:42:22.075Z,3.15
2022-10-30T20:44:48.668Z,3.33
2022-10-30T20:47:15.316Z,3.30
2022-10-30T20:49:42.035Z,3.45
2022-10-30T20:52:08.618Z,3.15
2022-10-30T20:54:35.427Z,3.20
2022-10-30T20:57:02.077Z,3.63
2022-10-30T20:59:28.596Z,3.40
2022-10-30T21:01:55.290Z,2.92
2022-10-30T21:04:21.952Z,3.03
2022-10-30T21:06:48.424Z,2.83
2022-10-30T21:09:14.820Z,4.13
2022-10-30T21:11:41.294Z,3.33
2022-10-30T21:14:07.866Z,2.75
2022-10-30T21:16:34.247Z,3.45
2022-10-30T21:19:00.732Z,3.10
2022-10-30T21:21:27.203Z,3.20
2022-10-30T21:23:54.711Z,3.28
2022-10-30T21:26:21.404Z,2.67
2022-10-30T21:28:47.913Z,2.70
2022-10-30T21:31:14.478Z,3.00
2022-10-30T21:33:41.061Z,2.70
2022-10-30T21:36:12.977Z,2.85
2022-10-30T21:38:42.190Z,2.92
2022-10-30T21:41:10.014Z,2.55
2022-10-30T21:43:36.526Z,2.50
2022-10-30T21:46:06.571Z,2.60
2022-10-30T21:48:32.994Z,2.92
2022-10-30T21:51:26.497Z,2.60
2022-10-30T21:53:54.114Z,2.55
2022-10-30T21:56:24.333Z,2.63
2022-10-30T21:58:51.082Z,2.78
2022-10-30T22:01:18.687Z,2.80
2022-10-30T22:03:45.770Z,2.80
2022-10-30T22:06:13.217Z,2.50
2022-10-30T22:08:40.073Z,2.45
2022-10-30T22:11:08.183Z,2.55
2022-10-30T22:13:35.112Z,2.78
2022-10-30T22:16:01.692Z,2.50
2022-10-30T22:18:28.222Z,2.80
2022-10-30T22:21:06.373Z,2.63
2022-10-30T22:23:33.328Z,2.60
2022-10-30T22:26:00.900Z,2.60
2022-10-30T22:28:28.353Z,2.50
2022-10-30T22:30:54.804Z,2.65
2022-10-30T22:33:21.515Z,2.80
2022-10-30T22:35:47.906Z,3.25
2022-10-30T22:38:14.284Z,2.90
2022-10-30T22:40:41.908Z,2.38
2022-10-30T22:43:08.525Z,2.47
2022-10-30T22:45:34.952Z,2.42
2022-10-30T22:48:01.932Z,2.75
2022-10-30T22:50:28.832Z,2.35
2022-10-30T22:52:57.355Z,2.60
2022-10-30T22:55:23.839Z,2.60
2022-10-30T22:57:54.295Z,2.25
2022-10-30T23:00:27.585Z,2.60
2022-10-30T23:02:54.628Z,2.40
2022-10-30T23:05:21.178Z,2.53
2022-10-30T23:07:47.597Z,2.20
2022-10-30T23:10:14.020Z,2.63
2022-10-30T23:12:40.476Z,2.50
2022-10-30T23:15:07.246Z,2.30
2022-10-30T23:17:33.713Z,2.38
2022-10-30T23:20:00.212Z,2.95
2022-10-30T23:22:27.815Z,2.33
2022-10-30T23:24:54.337Z,2.40
2022-10-30T23:27:20.683Z,2.75
2022-10-30T23:29:47.478Z,2.35
2022-10-30T23:32:13.930Z,2.00
2022-10-30T23:34:40.355Z,2.58
2022-10-30T23:37:06.748Z,2.10
2022-10-30T23:39:33.219Z,2.72
2022-10-30T23:41:59.920Z,2.80
2022-10-30T23:44:26.354Z,2.65
2022-10-30T23:46:52.828Z,2.47
2022-10-30T23:49:19.229Z,2.28
2022-10-30T23:51:45.652Z,2.00
2022-10-30T23:54:12.134Z,2.42
2022-10-30T23:56:38.537Z,2.70
2022-10-30T23:59:05.011Z,2.05
